sensor_id;sensor_type;location;lat;lon;timestamp;pressure;altitude;pressure_sealevel;temperature;humidity
25080;BME280;13071;48.868;9.996;2022-07-05T00:01:13;96802.69;;;16.90;72.98
25080;BME280;13071;48.868;9.996;2022-07-05T00:03:39;96803.22;;;16.72;73.99
25080;BME280;13071;48.868;9.996;2022-07-05T00:06:06;96801.19;;;16.69;73.52
25080;BME280;13071;48.868;9.996;2022-07-05T00:08:33;96800.91;;;16.55;74.56
25080;BME280;13071;48.868;9.996;2022-07-05T00:11:01;96796.41;;;16.43;75.16
25080;BME280;13071;48.868;9.996;2022-07-05T00:13:28;96804.44;;;16.33;74.89
25080;BME280;13071;48.868;9.996;2022-07-05T00:15:54;96809.09;;;16.32;75.13
25080;BME280;13071;48.868;9.996;2022-07-05T00:18:21;96804.06;;;16.34;75.32
25080;BME280;13071;48.868;9.996;2022-07-05T00:20:48;96809.31;;;16.24;75.80
25080;BME280;13071;48.868;9.996;2022-07-05T00:23:14;96801.84;;;16.21;75.79
25080;BME280;13071;48.868;9.996;2022-07-05T00:25:41;96806.59;;;16.24;76.01
25080;BME280;13071;48.868;9.996;2022-07-05T00:28:09;96798.19;;;16.32;75.50
25080;BME280;13071;48.868;9.996;2022-07-05T00:30:36;96802.16;;;16.38;75.73
25080;BME280;13071;48.868;9.996;2022-07-05T00:33:02;96805.69;;;16.39;75.16
25080;BME280;13071;48.868;9.996;2022-07-05T00:35:29;96798.78;;;16.22;75.53
25080;BME280;13071;48.868;9.996;2022-07-05T00:37:56;96806.16;;;16.22;75.75
25080;BME280;13071;48.868;9.996;2022-07-05T00:40:23;96806.66;;;16.27;75.53
25080;BME280;13071;48.868;9.996;2022-07-05T00:42:49;96795.06;;;16.34;75.37
25080;BME280;13071;48.868;9.996;2022-07-05T00:45:17;96798.66;;;16.38;75.02
25080;BME280;13071;48.868;9.996;2022-07-05T00:47:44;96791.13;;;16.31;75.41
25080;BME280;13071;48.868;9.996;2022-07-05T00:50:11;96803.06;;;16.23;75.40
25080;BME280;13071;48.868;9.996;2022-07-05T00:52:37;96799.78;;;15.95;76.51
25080;BME280;13071;48.868;9.996;2022-07-05T00:55:05;96806.19;;;16.03;76.30
25080;BME280;13071;48.868;9.996;2022-07-05T00:57:33;96802.78;;;16.09;76.45
25080;BME280;13071;48.868;9.996;2022-07-05T01:00:00;96814.94;;;16.12;76.21
25080;BME280;13071;48.868;9.996;2022-07-05T01:02:28;96809.19;;;16.17;75.66
25080;BME280;13071;48.868;9.996;2022-07-05T01:04:55;96806.47;;;16.17;75.26
25080;BME280;13071;48.868;9.996;2022-07-05T01:07:23;96812.00;;;16.20;75.57
25080;BME280;13071;48.868;9.996;2022-07-05T01:09:51;96799.09;;;15.98;75.20
25080;BME280;13071;48.868;9.996;2022-07-05T01:12:18;96806.53;;;16.01;76.10
25080;BME280;13071;48.868;9.996;2022-07-05T01:14:45;96812.16;;;16.08;76.36
25080;BME280;13071;48.868;9.996;2022-07-05T01:17:12;96810.28;;;16.12;76.63
25080;BME280;13071;48.868;9.996;2022-07-05T01:19:40;96801.16;;;15.85;76.71
25080;BME280;13071;48.868;9.996;2022-07-05T01:22:14;96803.81;;;16.01;76.51
25080;BME280;13071;48.868;9.996;2022-07-05T01:24:43;96805.25;;;15.95;76.47
25080;BME280;13071;48.868;9.996;2022-07-05T01:27:11;96801.50;;;15.84;77.35
25080;BME280;13071;48.868;9.996;2022-07-05T01:29:38;96799.44;;;15.77;77.03
25080;BME280;13071;48.868;9.996;2022-07-05T01:32:05;96791.09;;;15.70;77.57
25080;BME280;13071;48.868;9.996;2022-07-05T01:34:33;96806.63;;;15.66;77.42
25080;BME280;13071;48.868;9.996;2022-07-05T01:37:03;96802.69;;;15.64;77.74
25080;BME280;13071;48.868;9.996;2022-07-05T01:39:30;96796.19;;;15.52;77.73
25080;BME280;13071;48.868;9.996;2022-07-05T01:41:59;96802.53;;;15.41;78.13
25080;BME280;13071;48.868;9.996;2022-07-05T01:44:25;96801.59;;;15.33;78.24
25080;BME280;13071;48.868;9.996;2022-07-05T01:46:56;96805.00;;;14.95;78.40
25080;BME280;13071;48.868;9.996;2022-07-05T01:49:26;96813.63;;;14.97;79.63
25080;BME280;13071;48.868;9.996;2022-07-05T01:51:55;96811.81;;;14.70;79.37
25080;BME280;13071;48.868;9.996;2022-07-05T01:54:24;96809.06;;;14.54;81.53
25080;BME280;13071;48.868;9.996;2022-07-05T01:56:51;96809.69;;;14.63;81.49
25080;BME280;13071;48.868;9.996;2022-07-05T01:59:19;96807.56;;;14.57;81.83
25080;BME280;13071;48.868;9.996;2022-07-05T02:01:46;96809.69;;;14.63;82.35
25080;BME280;13071;48.868;9.996;2022-07-05T02:04:12;96811.00;;;14.54;83.22
25080;BME280;13071;48.868;9.996;2022-07-05T02:06:39;96813.09;;;14.45;84.61
25080;BME280;13071;48.868;9.996;2022-07-05T02:09:06;96818.47;;;14.57;82.18
25080;BME280;13071;48.868;9.996;2022-07-05T02:11:33;96807.69;;;14.33;83.79
25080;BME280;13071;48.868;9.996;2022-07-05T02:14:00;96810.66;;;14.27;84.68
25080;BME280;13071;48.868;9.996;2022-07-05T02:16:28;96815.94;;;14.20;85.38
25080;BME280;13071;48.868;9.996;2022-07-05T02:18:55;96819.78;;;14.19;85.92
25080;BME280;13071;48.868;9.996;2022-07-05T02:21:22;96816.00;;;14.08;86.71
25080;BME280;13071;48.868;9.996;2022-07-05T02:23:49;96818.78;;;14.12;86.66
25080;BME280;13071;48.868;9.996;2022-07-05T02:26:15;96815.56;;;14.22;86.38
25080;BME280;13071;48.868;9.996;2022-07-05T02:28:42;96807.59;;;14.29;86.69
25080;BME280;13071;48.868;9.996;2022-07-05T02:31:09;96807.13;;;14.39;86.02
25080;BME280;13071;48.868;9.996;2022-07-05T02:33:37;96804.41;;;14.55;85.07
25080;BME280;13071;48.868;9.996;2022-07-05T02:36:08;96812.41;;;14.36;85.89
25080;BME280;13071;48.868;9.996;2022-07-05T02:38:36;96809.06;;;14.39;85.24
25080;BME280;13071;48.868;9.996;2022-07-05T02:41:05;96815.38;;;14.43;85.24
25080;BME280;13071;48.868;9.996;2022-07-05T02:43:32;96814.66;;;14.46;85.64
25080;BME280;13071;48.868;9.996;2022-07-05T02:45:59;96812.00;;;14.34;85.36
25080;BME280;13071;48.868;9.996;2022-07-05T02:48:27;96806.00;;;14.28;85.69
25080;BME280;13071;48.868;9.996;2022-07-05T02:50:55;96810.66;;;14.27;85.95
25080;BME280;13071;48.868;9.996;2022-07-05T02:53:22;96813.47;;;14.31;86.18
25080;BME280;13071;48.868;9.996;2022-07-05T02:55:49;96816.06;;;14.12;87.24
25080;BME280;13071;48.868;9.996;2022-07-05T02:58:16;96810.59;;;14.24;86.65
25080;BME280;13071;48.868;9.996;2022-07-05T03:00:43;96815.19;;;14.08;86.18
25080;BME280;13071;48.868;9.996;2022-07-05T03:03:09;96807.38;;;14.06;85.77
25080;BME280;13071;48.868;9.996;2022-07-05T03:05:36;96815.13;;;13.92;86.25
25080;BME280;13071;48.868;9.996;2022-07-05T03:08:05;96810.94;;;13.95;85.95
25080;BME280;13071;48.868;9.996;2022-07-05T03:10:31;96812.31;;;13.89;85.90
25080;BME280;13071;48.868;9.996;2022-07-05T03:12:58;96815.59;;;13.94;86.09
25080;BME280;13071;48.868;9.996;2022-07-05T03:15:25;96817.56;;;14.09;85.64
25080;BME280;13071;48.868;9.996;2022-07-05T03:17:52;96824.00;;;14.17;85.77
25080;BME280;13071;48.868;9.996;2022-07-05T03:20:18;96824.16;;;14.08;85.53
25080;BME280;13071;48.868;9.996;2022-07-05T03:22:45;96826.88;;;14.08;85.33
25080;BME280;13071;48.868;9.996;2022-07-05T03:25:13;96827.63;;;13.93;85.67
25080;BME280;13071;48.868;9.996;2022-07-05T03:27:40;96828.06;;;13.95;85.78
25080;BME280;13071;48.868;9.996;2022-07-05T03:30:07;96822.47;;;14.04;85.42
25080;BME280;13071;48.868;9.996;2022-07-05T03:32:34;96833.44;;;14.07;85.67
25080;BME280;13071;48.868;9.996;2022-07-05T03:35:01;96832.81;;;13.98;85.91
25080;BME280;13071;48.868;9.996;2022-07-05T03:37:28;96827.56;;;14.05;85.50
25080;BME280;13071;48.868;9.996;2022-07-05T03:39:54;96835.03;;;14.08;85.65
25080;BME280;13071;48.868;9.996;2022-07-05T03:42:22;96829.78;;;14.15;85.71
25080;BME280;13071;48.868;9.996;2022-07-05T03:44:49;96839.53;;;14.16;85.83
25080;BME280;13071;48.868;9.996;2022-07-05T03:47:16;96833.66;;;14.14;86.40
25080;BME280;13071;48.868;9.996;2022-07-05T03:49:42;96837.97;;;14.15;85.87
25080;BME280;13071;48.868;9.996;2022-07-05T03:52:09;96834.19;;;13.92;85.06
25080;BME280;13071;48.868;9.996;2022-07-05T03:54:36;96838.91;;;13.67;85.15
25080;BME280;13071;48.868;9.996;2022-07-05T03:57:03;96850.97;;;13.66;85.49
25080;BME280;13071;48.868;9.996;2022-07-05T03:59:31;96846.31;;;14.50;83.34
25080;BME280;13071;48.868;9.996;2022-07-05T04:01:58;96845.81;;;15.42;80.98
25080;BME280;13071;48.868;9.996;2022-07-05T04:04:24;96841.38;;;16.69;76.31
25080;BME280;13071;48.868;9.996;2022-07-05T04:06:51;96840.47;;;17.86;69.17
25080;BME280;13071;48.868;9.996;2022-07-05T04:09:17;96841.50;;;18.74;67.37
25080;BME280;13071;48.868;9.996;2022-07-05T04:11:44;96842.25;;;19.73;64.66
25080;BME280;13071;48.868;9.996;2022-07-05T04:14:11;96844.94;;;20.53;62.50
25080;BME280;13071;48.868;9.996;2022-07-05T04:16:39;96847.38;;;20.90;61.98
25080;BME280;13071;48.868;9.996;2022-07-05T04:19:06;96845.75;;;21.99;58.72
25080;BME280;13071;48.868;9.996;2022-07-05T04:21:32;96840.81;;;22.45;56.77
25080;BME280;13071;48.868;9.996;2022-07-05T04:23:59;96844.19;;;22.81;56.08
25080;BME280;13071;48.868;9.996;2022-07-05T04:26:26;96841.34;;;23.43;54.52
25080;BME280;13071;48.868;9.996;2022-07-05T04:28:53;96844.81;;;23.54;53.49
25080;BME280;13071;48.868;9.996;2022-07-05T04:31:19;96851.75;;;23.25;54.29
25080;BME280;13071;48.868;9.996;2022-07-05T04:33:47;96858.69;;;23.47;53.60
25080;BME280;13071;48.868;9.996;2022-07-05T04:36:14;96847.06;;;24.38;52.11
25080;BME280;13071;48.868;9.996;2022-07-05T04:38:41;96842.09;;;22.96;54.46
25080;BME280;13071;48.868;9.996;2022-07-05T04:41:07;96850.84;;;24.21;52.99
25080;BME280;13071;48.868;9.996;2022-07-05T04:43:34;96859.13;;;24.81;51.67
25080;BME280;13071;48.868;9.996;2022-07-05T04:46:01;96852.31;;;24.89;52.18
25080;BME280;13071;48.868;9.996;2022-07-05T04:48:27;96856.44;;;25.51;51.03
25080;BME280;13071;48.868;9.996;2022-07-05T04:50:55;96847.97;;;25.85;49.32
25080;BME280;13071;48.868;9.996;2022-07-05T04:53:22;96861.91;;;25.58;50.30
25080;BME280;13071;48.868;9.996;2022-07-05T04:55:49;96865.19;;;25.96;49.95
25080;BME280;13071;48.868;9.996;2022-07-05T04:58:15;96867.81;;;25.60;50.21
25080;BME280;13071;48.868;9.996;2022-07-05T05:00:42;96859.88;;;25.12;51.15
25080;BME280;13071;48.868;9.996;2022-07-05T05:03:09;96867.59;;;25.24;51.37
25080;BME280;13071;48.868;9.996;2022-07-05T05:05:35;96868.22;;;25.82;50.25
25080;BME280;13071;48.868;9.996;2022-07-05T05:08:04;96862.69;;;26.02;49.70
25080;BME280;13071;48.868;9.996;2022-07-05T05:10:31;96873.84;;;26.21;48.87
25080;BME280;13071;48.868;9.996;2022-07-05T05:12:57;96869.34;;;25.38;51.68
25080;BME280;13071;48.868;9.996;2022-07-05T05:15:24;96869.25;;;26.11;49.79
25080;BME280;13071;48.868;9.996;2022-07-05T05:17:51;96866.88;;;26.33;50.00
25080;BME280;13071;48.868;9.996;2022-07-05T05:20:18;96866.50;;;25.68;51.71
25080;BME280;13071;48.868;9.996;2022-07-05T05:22:46;96869.00;;;25.83;50.64
25080;BME280;13071;48.868;9.996;2022-07-05T05:25:14;96872.97;;;26.05;50.65
25080;BME280;13071;48.868;9.996;2022-07-05T05:27:42;96867.88;;;26.23;50.10
25080;BME280;13071;48.868;9.996;2022-07-05T05:30:10;96865.63;;;25.95;50.50
25080;BME280;13071;48.868;9.996;2022-07-05T05:32:37;96865.38;;;25.86;50.99
25080;BME280;13071;48.868;9.996;2022-07-05T05:35:05;96868.81;;;25.47;51.59
25080;BME280;13071;48.868;9.996;2022-07-05T05:37:44;96864.38;;;25.03;53.36
25080;BME280;13071;48.868;9.996;2022-07-05T05:40:11;96864.34;;;25.06;53.43
25080;BME280;13071;48.868;9.996;2022-07-05T05:42:39;96864.19;;;24.86;56.00
25080;BME280;13071;48.868;9.996;2022-07-05T05:45:06;96868.75;;;24.05;59.89
25080;BME280;13071;48.868;9.996;2022-07-05T05:47:33;96868.03;;;24.01;59.82
25080;BME280;13071;48.868;9.996;2022-07-05T05:50:00;96871.91;;;24.07;58.87
25080;BME280;13071;48.868;9.996;2022-07-05T05:52:27;96870.22;;;24.14;58.73
25080;BME280;13071;48.868;9.996;2022-07-05T05:54:54;96865.34;;;24.28;58.44
25080;BME280;13071;48.868;9.996;2022-07-05T05:57:20;96863.94;;;24.17;59.13
25080;BME280;13071;48.868;9.996;2022-07-05T05:59:48;96873.56;;;24.01;60.40
25080;BME280;13071;48.868;9.996;2022-07-05T06:02:15;96874.41;;;23.95;59.99
25080;BME280;13071;48.868;9.996;2022-07-05T06:04:41;96880.91;;;23.74;61.24
25080;BME280;13071;48.868;9.996;2022-07-05T06:07:08;96878.16;;;23.74;61.18
25080;BME280;13071;48.868;9.996;2022-07-05T06:09:35;96882.25;;;23.59;61.28
25080;BME280;13071;48.868;9.996;2022-07-05T06:12:02;96882.41;;;23.38;61.90
25080;BME280;13071;48.868;9.996;2022-07-05T06:14:28;96886.69;;;23.49;62.95
25080;BME280;13071;48.868;9.996;2022-07-05T06:16:56;96887.09;;;23.44;63.69
25080;BME280;13071;48.868;9.996;2022-07-05T06:19:23;96888.69;;;23.42;62.31
25080;BME280;13071;48.868;9.996;2022-07-05T06:21:50;96888.06;;;23.23;62.44
25080;BME280;13071;48.868;9.996;2022-07-05T06:24:16;96893.59;;;23.23;63.67
25080;BME280;13071;48.868;9.996;2022-07-05T06:26:43;96898.75;;;23.18;63.83
25080;BME280;13071;48.868;9.996;2022-07-05T06:29:09;96902.09;;;23.47;60.79
25080;BME280;13071;48.868;9.996;2022-07-05T06:31:36;96899.25;;;23.57;61.38
25080;BME280;13071;48.868;9.996;2022-07-05T06:34:04;96895.69;;;23.57;60.15
25080;BME280;13071;48.868;9.996;2022-07-05T06:36:31;96900.41;;;23.60;57.79
25080;BME280;13071;48.868;9.996;2022-07-05T06:38:57;96901.72;;;23.48;55.79
25080;BME280;13071;48.868;9.996;2022-07-05T06:41:24;96902.75;;;23.61;57.43
25080;BME280;13071;48.868;9.996;2022-07-05T06:43:50;96897.94;;;23.73;57.69
25080;BME280;13071;48.868;9.996;2022-07-05T06:46:17;96898.53;;;23.91;57.86
25080;BME280;13071;48.868;9.996;2022-07-05T06:48:44;96893.91;;;23.81;57.09
25080;BME280;13071;48.868;9.996;2022-07-05T06:51:12;96902.25;;;23.74;55.59
25080;BME280;13071;48.868;9.996;2022-07-05T06:53:38;96911.75;;;23.73;56.48
25080;BME280;13071;48.868;9.996;2022-07-05T06:56:05;96914.25;;;23.56;57.87
25080;BME280;13071;48.868;9.996;2022-07-05T06:58:32;96913.28;;;23.74;57.45
25080;BME280;13071;48.868;9.996;2022-07-05T07:00:58;96906.97;;;23.77;58.11
25080;BME280;13071;48.868;9.996;2022-07-05T07:03:25;96909.59;;;23.91;57.03
25080;BME280;13071;48.868;9.996;2022-07-05T07:05:52;96904.41;;;23.93;58.54
25080;BME280;13071;48.868;9.996;2022-07-05T07:08:20;96914.19;;;23.63;57.72
25080;BME280;13071;48.868;9.996;2022-07-05T07:11:04;96906.97;;;23.77;59.29
25080;BME280;13071;48.868;9.996;2022-07-05T07:13:30;96903.91;;;24.05;57.83
25080;BME280;13071;48.868;9.996;2022-07-05T07:15:57;96910.56;;;24.11;57.09
25080;BME280;13071;48.868;9.996;2022-07-05T07:18:24;96908.75;;;24.35;57.35
25080;BME280;13071;48.868;9.996;2022-07-05T07:20:50;96913.09;;;24.36;56.59
25080;BME280;13071;48.868;9.996;2022-07-05T07:23:17;96914.16;;;24.45;57.45
25080;BME280;13071;48.868;9.996;2022-07-05T07:25:45;96909.31;;;24.53;56.42
25080;BME280;13071;48.868;9.996;2022-07-05T07:28:13;96909.16;;;24.33;57.14
25080;BME280;13071;48.868;9.996;2022-07-05T07:30:40;96919.25;;;24.09;58.21
25080;BME280;13071;48.868;9.996;2022-07-05T07:33:06;96919.75;;;24.42;56.34
25080;BME280;13071;48.868;9.996;2022-07-05T07:35:33;96918.59;;;24.70;55.26
25080;BME280;13071;48.868;9.996;2022-07-05T07:38:00;96924.81;;;24.47;55.12
25080;BME280;13071;48.868;9.996;2022-07-05T07:40:26;96925.72;;;24.67;56.33
25080;BME280;13071;48.868;9.996;2022-07-05T07:42:56;96920.78;;;24.82;55.26
25080;BME280;13071;48.868;9.996;2022-07-05T07:45:22;96918.41;;;24.84;54.82
25080;BME280;13071;48.868;9.996;2022-07-05T07:47:49;96925.56;;;24.81;56.36
25080;BME280;13071;48.868;9.996;2022-07-05T07:50:15;96923.81;;;24.94;56.61
25080;BME280;13071;48.868;9.996;2022-07-05T07:52:42;96923.13;;;24.87;54.22
25080;BME280;13071;48.868;9.996;2022-07-05T07:55:10;96924.84;;;24.74;55.44
25080;BME280;13071;48.868;9.996;2022-07-05T07:57:36;96926.72;;;24.84;55.04
25080;BME280;13071;48.868;9.996;2022-07-05T08:00:06;96928.56;;;24.94;56.09
25080;BME280;13071;48.868;9.996;2022-07-05T08:02:33;96926.66;;;25.18;54.98
25080;BME280;13071;48.868;9.996;2022-07-05T08:04:59;96925.25;;;25.06;53.58
25080;BME280;13071;48.868;9.996;2022-07-05T08:07:27;96924.84;;;25.31;53.47
25080;BME280;13071;48.868;9.996;2022-07-05T08:09:53;96928.56;;;25.48;54.46
25080;BME280;13071;48.868;9.996;2022-07-05T08:12:20;96935.69;;;25.49;53.96
25080;BME280;13071;48.868;9.996;2022-07-05T08:14:47;96929.28;;;25.52;52.95
25080;BME280;13071;48.868;9.996;2022-07-05T08:17:15;96927.75;;;24.67;55.75
25080;BME280;13071;48.868;9.996;2022-07-05T08:19:41;96927.28;;;25.29;54.21
25080;BME280;13071;48.868;9.996;2022-07-05T08:22:25;96925.19;;;25.63;52.87
25080;BME280;13071;48.868;9.996;2022-07-05T08:24:52;96929.06;;;25.66;52.01
25080;BME280;13071;48.868;9.996;2022-07-05T08:27:19;96930.25;;;25.42;53.11
25080;BME280;13071;48.868;9.996;2022-07-05T08:29:45;96929.63;;;25.04;53.91
25080;BME280;13071;48.868;9.996;2022-07-05T08:32:12;96920.84;;;25.35;49.69
25080;BME280;13071;48.868;9.996;2022-07-05T08:34:41;96926.97;;;25.50;51.32
25080;BME280;13071;48.868;9.996;2022-07-05T08:37:08;96927.25;;;25.56;51.78
25080;BME280;13071;48.868;9.996;2022-07-05T08:39:35;96916.84;;;25.36;51.94
25080;BME280;13071;48.868;9.996;2022-07-05T08:42:02;96924.22;;;25.73;49.97
25080;BME280;13071;48.868;9.996;2022-07-05T08:44:30;96921.59;;;25.86;51.85
25080;BME280;13071;48.868;9.996;2022-07-05T08:47:02;96924.81;;;25.85;51.89
25080;BME280;13071;48.868;9.996;2022-07-05T08:49:30;96915.78;;;25.30;53.75
25080;BME280;13071;48.868;9.996;2022-07-05T08:52:02;96919.00;;;25.75;52.04
25080;BME280;13071;48.868;9.996;2022-07-05T08:54:30;96926.63;;;25.95;50.90
25080;BME280;13071;48.868;9.996;2022-07-05T08:56:56;96925.50;;;26.12;50.55
25080;BME280;13071;48.868;9.996;2022-07-05T08:59:23;96917.75;;;26.03;50.02
25080;BME280;13071;48.868;9.996;2022-07-05T09:01:50;96913.84;;;26.20;50.50
25080;BME280;13071;48.868;9.996;2022-07-05T09:04:17;96914.59;;;26.25;52.81
25080;BME280;13071;48.868;9.996;2022-07-05T09:06:46;96918.03;;;25.86;51.07
25080;BME280;13071;48.868;9.996;2022-07-05T09:09:17;96915.84;;;25.00;54.38
25080;BME280;13071;48.868;9.996;2022-07-05T09:11:45;96919.31;;;26.04;50.44
25080;BME280;13071;48.868;9.996;2022-07-05T09:14:19;96910.31;;;25.50;49.93
25080;BME280;13071;48.868;9.996;2022-07-05T09:16:46;96912.34;;;26.39;49.40
25080;BME280;13071;48.868;9.996;2022-07-05T09:19:13;96923.78;;;25.25;50.29
25080;BME280;13071;48.868;9.996;2022-07-05T09:21:40;96918.13;;;25.32;50.82
25080;BME280;13071;48.868;9.996;2022-07-05T09:24:08;96918.09;;;26.29;50.67
25080;BME280;13071;48.868;9.996;2022-07-05T09:26:38;96915.28;;;25.86;48.63
25080;BME280;13071;48.868;9.996;2022-07-05T09:29:08;96920.72;;;26.36;47.44
25080;BME280;13071;48.868;9.996;2022-07-05T09:31:36;96910.59;;;26.65;45.93
25080;BME280;13071;48.868;9.996;2022-07-05T09:34:04;96911.56;;;26.58;45.74
25080;BME280;13071;48.868;9.996;2022-07-05T09:36:50;96914.63;;;27.00;46.45
25080;BME280;13071;48.868;9.996;2022-07-05T09:39:17;96911.34;;;26.69;45.54
25080;BME280;13071;48.868;9.996;2022-07-05T09:41:45;96909.56;;;27.31;44.78
25080;BME280;13071;48.868;9.996;2022-07-05T09:44:24;96905.00;;;27.57;44.26
25080;BME280;13071;48.868;9.996;2022-07-05T09:47:07;96907.66;;;27.44;46.00
25080;BME280;13071;48.868;9.996;2022-07-05T09:49:35;96907.16;;;27.81;44.48
25080;BME280;13071;48.868;9.996;2022-07-05T09:52:02;96913.47;;;28.14;45.02
25080;BME280;13071;48.868;9.996;2022-07-05T09:54:29;96904.00;;;28.12;45.79
25080;BME280;13071;48.868;9.996;2022-07-05T09:56:57;96903.59;;;27.81;43.90
25080;BME280;13071;48.868;9.996;2022-07-05T09:59:23;96902.19;;;27.73;42.93
25080;BME280;13071;48.868;9.996;2022-07-05T10:01:50;96909.44;;;27.70;42.36
25080;BME280;13071;48.868;9.996;2022-07-05T10:04:18;96903.19;;;27.50;43.84
25080;BME280;13071;48.868;9.996;2022-07-05T10:06:45;96907.75;;;27.40;42.63
25080;BME280;13071;48.868;9.996;2022-07-05T10:09:12;96916.34;;;26.74;42.97
25080;BME280;13071;48.868;9.996;2022-07-05T10:11:41;96927.13;;;25.40;47.44
25080;BME280;13071;48.868;9.996;2022-07-05T10:14:14;96924.97;;;24.97;46.07
25080;BME280;13071;48.868;9.996;2022-07-05T10:16:45;96926.72;;;24.13;46.77
25080;BME280;13071;48.868;9.996;2022-07-05T10:19:17;96926.34;;;24.51;47.70
25080;BME280;13071;48.868;9.996;2022-07-05T10:21:45;96926.63;;;24.61;48.79
25080;BME280;13071;48.868;9.996;2022-07-05T10:24:13;96931.78;;;24.25;49.25
25080;BME280;13071;48.868;9.996;2022-07-05T10:26:41;96932.88;;;23.90;51.89
25080;BME280;13071;48.868;9.996;2022-07-05T10:29:10;96927.75;;;24.63;51.00
25080;BME280;13071;48.868;9.996;2022-07-05T10:31:38;96920.84;;;25.35;49.90
25080;BME280;13071;48.868;9.996;2022-07-05T10:34:06;96925.84;;;24.60;50.54
25080;BME280;13071;48.868;9.996;2022-07-05T10:36:33;96925.13;;;24.83;49.28
25080;BME280;13071;48.868;9.996;2022-07-05T10:39:01;96927.84;;;25.17;50.43
25080;BME280;13071;48.868;9.996;2022-07-05T10:41:29;96923.41;;;26.19;45.54
25080;BME280;13071;48.868;9.996;2022-07-05T10:43:57;96920.72;;;25.69;46.62
25080;BME280;13071;48.868;9.996;2022-07-05T10:46:36;96916.81;;;26.73;46.17
25080;BME280;13071;48.868;9.996;2022-07-05T10:49:13;96913.47;;;27.17;44.99
25080;BME280;13071;48.868;9.996;2022-07-05T10:51:40;96916.00;;;27.28;44.05
25080;BME280;13071;48.868;9.996;2022-07-05T10:54:07;96919.22;;;27.42;43.12
25080;BME280;13071;48.868;9.996;2022-07-05T10:56:34;96916.97;;;26.03;45.50
25080;BME280;13071;48.868;9.996;2022-07-05T10:59:06;96915.75;;;26.47;43.86
25080;BME280;13071;48.868;9.996;2022-07-05T11:01:40;96904.31;;;27.00;44.90
25080;BME280;13071;48.868;9.996;2022-07-05T11:06:59;96900.88;;;27.93;42.32
25080;BME280;13071;48.868;9.996;2022-07-05T11:09:26;96905.53;;;26.60;41.86
25080;BME280;13071;48.868;9.996;2022-07-05T11:12:07;96903.03;;;26.85;43.52
25080;BME280;13071;48.868;9.996;2022-07-05T11:14:38;96903.13;;;25.79;44.93
25080;BME280;13071;48.868;9.996;2022-07-05T11:17:18;96907.09;;;25.55;45.52
25080;BME280;13071;48.868;9.996;2022-07-05T11:20:27;96902.84;;;24.63;44.85
25080;BME280;13071;48.868;9.996;2022-07-05T11:23:07;96905.28;;;24.61;43.27
25080;BME280;13071;48.868;9.996;2022-07-05T11:25:35;96902.78;;;25.51;44.89
25080;BME280;13071;48.868;9.996;2022-07-05T11:28:18;96902.34;;;25.29;41.84
25080;BME280;13071;48.868;9.996;2022-07-05T11:30:50;96900.19;;;25.40;41.88
25080;BME280;13071;48.868;9.996;2022-07-05T11:33:29;96895.38;;;25.44;41.85
25080;BME280;13071;48.868;9.996;2022-07-05T11:35:57;96899.59;;;25.75;43.53
25080;BME280;13071;48.868;9.996;2022-07-05T11:38:24;96898.63;;;25.86;46.33
25080;BME280;13071;48.868;9.996;2022-07-05T11:40:51;96894.38;;;26.63;43.22
25080;BME280;13071;48.868;9.996;2022-07-05T11:43:25;96888.75;;;26.87;41.63
25080;BME280;13071;48.868;9.996;2022-07-05T11:45:56;96885.50;;;27.08;39.68
25080;BME280;13071;48.868;9.996;2022-07-05T11:48:22;96891.31;;;27.14;41.46
25080;BME280;13071;48.868;9.996;2022-07-05T11:50:51;96900.28;;;25.33;46.00
25080;BME280;13071;48.868;9.996;2022-07-05T11:53:25;96894.25;;;25.15;45.94
25080;BME280;13071;48.868;9.996;2022-07-05T11:55:54;96895.38;;;26.14;45.74
25080;BME280;13071;48.868;9.996;2022-07-05T11:58:22;96893.63;;;25.54;43.12
25080;BME280;13071;48.868;9.996;2022-07-05T12:00:54;96898.59;;;25.66;43.12
25080;BME280;13071;48.868;9.996;2022-07-05T12:03:21;96889.84;;;25.91;45.67
25080;BME280;13071;48.868;9.996;2022-07-05T12:05:48;96889.38;;;26.15;43.73
25080;BME280;13071;48.868;9.996;2022-07-05T12:08:21;96893.41;;;25.68;44.81
25080;BME280;13071;48.868;9.996;2022-07-05T12:10:48;96885.38;;;25.00;44.71
25080;BME280;13071;48.868;9.996;2022-07-05T12:13:42;96882.69;;;24.93;44.61
25080;BME280;13071;48.868;9.996;2022-07-05T12:16:10;96883.63;;;25.36;43.32
25080;BME280;13071;48.868;9.996;2022-07-05T12:18:46;96880.13;;;26.02;43.92
25080;BME280;13071;48.868;9.996;2022-07-05T12:21:13;96882.66;;;25.23;47.53
25080;BME280;13071;48.868;9.996;2022-07-05T12:23:42;96886.06;;;25.58;45.81
25080;BME280;13071;48.868;9.996;2022-07-05T12:26:10;96872.06;;;25.88;44.36
25080;BME280;13071;48.868;9.996;2022-07-05T12:28:37;96874.91;;;24.84;46.64
25080;BME280;13071;48.868;9.996;2022-07-05T12:31:17;96872.38;;;25.94;44.86
25080;BME280;13071;48.868;9.996;2022-07-05T12:33:45;96877.88;;;25.74;44.03
25080;BME280;13071;48.868;9.996;2022-07-05T12:36:12;96879.34;;;26.02;42.91
25080;BME280;13071;48.868;9.996;2022-07-05T12:38:39;96872.72;;;25.96;42.81
25080;BME280;13071;48.868;9.996;2022-07-05T12:41:07;96877.50;;;26.15;45.51
25080;BME280;13071;48.868;9.996;2022-07-05T12:43:49;96885.38;;;26.16;43.64
25080;BME280;13071;48.868;9.996;2022-07-05T12:46:15;96877.91;;;25.47;43.87
25080;BME280;13071;48.868;9.996;2022-07-05T12:48:42;96877.00;;;25.04;42.81
25080;BME280;13071;48.868;9.996;2022-07-05T12:51:10;96874.34;;;25.23;42.40
25080;BME280;13071;48.868;9.996;2022-07-05T12:53:45;96874.16;;;25.11;43.32
25080;BME280;13071;48.868;9.996;2022-07-05T12:56:31;96866.75;;;25.27;43.61
25080;BME280;13071;48.868;9.996;2022-07-05T12:59:15;96868.59;;;25.61;42.86
25080;BME280;13071;48.868;9.996;2022-07-05T13:01:43;96882.44;;;25.61;43.96
25080;BME280;13071;48.868;9.996;2022-07-05T13:04:11;96870.56;;;26.27;43.53
25080;BME280;13071;48.868;9.996;2022-07-05T13:06:43;96873.69;;;26.48;42.09
25080;BME280;13071;48.868;9.996;2022-07-05T13:09:12;96878.38;;;25.69;44.57